createdAt,value
2018-05-25T00:01:36.673Z,19.23
2018-05-25T00:05:09.155Z,19.80
2018-05-25T00:08:41.672Z,20.30
2018-05-25T00:12:14.174Z,19.83
2018-05-25T00:15:46.659Z,19.47
2018-05-25T00:19:19.917Z,19.37
2018-05-25T00:22:52.404Z,18.50
2018-05-25T00:26:24.873Z,18.27
2018-05-25T00:29:57.399Z,21.23
2018-05-25T00:33:29.890Z,21.27
2018-05-25T00:37:02.372Z,21.57
2018-05-25T00:40:34.888Z,22.27
2018-05-25T00:44:07.425Z,20.57
2018-05-25T00:47:40.691Z,20.13
2018-05-25T00:51:13.189Z,20.47
2018-05-25T00:54:58.063Z,21.50
2018-05-25T00:58:30.560Z,20.17
2018-05-25T01:02:03.084Z,26.43
2018-05-25T01:05:35.582Z,26.13
2018-05-25T01:09:08.072Z,27.33
2018-05-25T01:12:40.568Z,26.40
2018-05-25T01:16:13.040Z,25.30
2018-05-25T01:19:45.532Z,24.40
2018-05-25T01:23:18.022Z,25.87
2018-05-25T01:26:51.265Z,21.30
2018-05-25T01:30:23.753Z,23.37
2018-05-25T01:33:56.234Z,23.10
2018-05-25T01:37:28.715Z,24.70
2018-05-25T01:41:01.204Z,23.27
2018-05-25T01:44:33.684Z,25.40
2018-05-25T01:48:06.181Z,24.33
2018-05-25T01:51:38.653Z,23.87
2018-05-25T01:55:11.144Z,22.60
2018-05-25T01:58:43.625Z,22.80
2018-05-25T02:02:16.112Z,23.13
2018-05-25T02:05:48.581Z,24.20
2018-05-25T02:09:21.070Z,23.43
2018-05-25T02:12:53.552Z,24.10
2018-05-25T02:16:26.030Z,24.70
2018-05-25T02:19:58.524Z,25.03
2018-05-25T02:23:31.008Z,25.50
2018-05-25T02:27:03.472Z,23.77
2018-05-25T02:30:35.965Z,21.43
2018-05-25T02:34:08.459Z,25.60
2018-05-25T02:37:40.943Z,26.67
2018-05-25T02:41:13.424Z,24.73
2018-05-25T02:44:46.131Z,24.90
2018-05-25T02:48:18.619Z,25.10
2018-05-25T02:51:51.093Z,24.67
2018-05-25T02:55:24.342Z,22.97
2018-05-25T02:58:56.830Z,25.80
2018-05-25T03:02:29.312Z,25.87
2018-05-25T03:06:01.847Z,25.23
2018-05-25T03:09:35.097Z,24.83
2018-05-25T03:13:07.620Z,25.20
2018-05-25T03:16:40.856Z,26.57
2018-05-25T03:20:13.344Z,25.03
2018-05-25T03:23:45.836Z,24.70
2018-05-25T03:27:18.320Z,23.97
2018-05-25T03:30:50.800Z,28.67
2018-05-25T03:34:23.281Z,26.17
2018-05-25T03:37:55.768Z,24.80
2018-05-25T03:41:28.244Z,26.17
2018-05-25T03:45:00.723Z,27.43
2018-05-25T03:48:33.971Z,26.63
2018-05-25T03:52:06.460Z,24.33
2018-05-25T03:55:39.688Z,27.83
2018-05-25T03:59:24.037Z,26.00
2018-05-25T04:02:56.530Z,21.90
2018-05-25T04:06:29.018Z,22.70
2018-05-25T04:10:01.500Z,28.63
2018-05-25T04:13:34.927Z,22.97
2018-05-25T04:17:07.425Z,24.93
2018-05-25T04:20:39.900Z,24.13
2018-05-25T04:24:12.385Z,26.13
2018-05-25T04:27:44.879Z,26.57
2018-05-25T04:31:17.360Z,25.30
2018-05-25T04:34:49.837Z,23.37
2018-05-25T04:38:22.333Z,22.87
2018-05-25T04:41:54.805Z,23.90
2018-05-25T04:45:27.418Z,25.37
2018-05-25T04:48:59.996Z,23.13
2018-05-25T04:52:32.471Z,23.90
2018-05-25T04:56:04.950Z,25.20
2018-05-25T04:59:37.432Z,30.63
2018-05-25T05:03:09.919Z,24.83
2018-05-25T05:06:43.161Z,24.00
2018-05-25T05:10:15.649Z,22.43
2018-05-25T05:13:48.161Z,26.20
2018-05-25T05:17:20.643Z,22.17
2018-05-25T05:20:53.117Z,28.67
2018-05-25T05:24:25.601Z,25.60
2018-05-25T05:27:58.088Z,24.27
2018-05-25T05:31:30.564Z,23.10
2018-05-25T05:35:03.049Z,25.30
2018-05-25T05:38:35.531Z,22.40
2018-05-25T05:42:08.016Z,21.93
2018-05-25T05:45:40.488Z,27.27
2018-05-25T05:49:12.971Z,27.83
2018-05-25T05:52:45.459Z,26.27
2018-05-25T05:56:17.928Z,24.17
2018-05-25T05:59:50.416Z,27.37
2018-05-25T06:03:22.901Z,29.63
2018-05-25T06:06:55.375Z,27.57
2018-05-25T06:10:27.872Z,26.90
2018-05-25T06:14:00.353Z,27.50
2018-05-25T06:17:32.844Z,28.07
2018-05-25T06:21:05.323Z,28.20
2018-05-25T06:24:37.808Z,29.10
2018-05-25T06:28:10.305Z,23.03
2018-05-25T06:31:42.782Z,29.00
2018-05-25T06:35:16.042Z,25.87
2018-05-25T06:38:48.585Z,29.00
2018-05-25T06:42:21.844Z,25.13
2018-05-25T06:45:54.316Z,27.00
2018-05-25T06:49:26.806Z,27.17
2018-05-25T06:52:59.284Z,25.90
2018-05-25T06:56:31.763Z,25.10
2018-05-25T07:00:04.241Z,25.90
2018-05-25T07:03:37.494Z,27.00
2018-05-25T07:07:09.975Z,27.30
2018-05-25T07:10:43.212Z,25.90
2018-05-25T07:14:15.696Z,25.47
2018-05-25T07:17:48.197Z,30.83
2018-05-25T07:21:20.684Z,31.37
2018-05-25T07:24:53.167Z,28.47
2018-05-25T07:28:25.672Z,29.90
2018-05-25T07:31:58.915Z,29.30
2018-05-25T07:35:31.412Z,26.40
2018-05-25T07:39:03.895Z,27.87
2018-05-25T07:42:36.381Z,27.33
2018-05-25T07:46:08.864Z,26.70
2018-05-25T07:49:41.356Z,27.20
2018-05-25T07:53:13.831Z,26.40
2018-05-25T07:56:46.313Z,29.37
2018-05-25T08:00:18.826Z,24.17
2018-05-25T08:03:51.284Z,28.20
2018-05-25T08:07:23.768Z,24.27
2018-05-25T08:10:56.249Z,26.60
2018-05-25T08:14:28.727Z,24.93
2018-05-25T08:18:01.209Z,26.83
2018-05-25T08:21:33.692Z,23.07
2018-05-25T08:25:06.178Z,26.33
2018-05-25T08:28:38.657Z,26.40
2018-05-25T08:32:11.141Z,25.67
2018-05-25T08:35:43.627Z,21.47
2018-05-25T08:39:16.109Z,22.20
2018-05-25T08:42:48.580Z,19.53
2018-05-25T08:46:21.080Z,19.93
2018-05-25T08:49:53.568Z,21.13
2018-05-25T08:53:26.046Z,21.87
2018-05-25T08:56:58.554Z,22.03
2018-05-25T09:00:31.041Z,20.57
2018-05-25T09:04:03.528Z,22.20
2018-05-25T09:07:36.007Z,20.80
2018-05-25T09:11:08.490Z,22.77
2018-05-25T09:14:40.976Z,22.87
2018-05-25T09:18:13.449Z,22.20
2018-05-25T09:21:45.958Z,27.70
2018-05-25T09:25:18.423Z,23.60
2018-05-25T09:28:50.907Z,25.20
2018-05-25T09:32:23.387Z,24.33
2018-05-25T09:35:55.864Z,25.70
2018-05-25T09:39:28.357Z,23.80
2018-05-25T09:43:00.844Z,21.90
2018-05-25T09:46:33.329Z,14.97
2018-05-25T09:50:05.821Z,14.40
2018-05-25T09:53:38.300Z,13.53
2018-05-25T09:57:10.777Z,10.80
2018-05-25T10:00:43.268Z,12.67
2018-05-25T10:04:15.753Z,11.90
2018-05-25T10:07:48.241Z,18.80
2018-05-25T10:11:20.709Z,18.20
2018-05-25T10:14:53.192Z,17.10
2018-05-25T10:18:25.683Z,19.77
2018-05-25T10:21:58.163Z,16.47
2018-05-25T10:25:30.641Z,17.37
2018-05-25T10:29:03.120Z,14.30
2018-05-25T10:32:35.600Z,13.20
2018-05-25T10:36:08.076Z,13.43
2018-05-25T10:39:40.566Z,12.80
2018-05-25T10:43:13.044Z,12.90
2018-05-25T10:46:45.520Z,12.47
2018-05-25T10:50:18.028Z,12.10
2018-05-25T10:53:50.501Z,11.20
2018-05-25T10:57:22.987Z,11.77
2018-05-25T11:00:55.460Z,11.53
2018-05-25T11:04:27.951Z,11.27
2018-05-25T11:08:00.440Z,12.60
2018-05-25T11:11:32.909Z,11.80
2018-05-25T11:15:05.402Z,11.37
2018-05-25T11:18:37.888Z,12.60
2018-05-25T11:22:10.368Z,11.33
2018-05-25T11:25:42.837Z,11.77
2018-05-25T11:29:15.323Z,12.30
2018-05-25T11:32:48.579Z,11.00
2018-05-25T11:36:21.060Z,10.93
2018-05-25T11:39:53.532Z,6.90
2018-05-25T11:43:26.776Z,6.97
2018-05-25T11:46:59.251Z,5.30
2018-05-25T11:50:31.719Z,6.77
2018-05-25T11:54:04.211Z,6.50
2018-05-25T11:57:36.689Z,10.63
2018-05-25T12:01:09.184Z,10.63
2018-05-25T12:04:41.657Z,11.50
2018-05-25T12:08:14.145Z,11.53
2018-05-25T12:11:46.621Z,10.77
2018-05-25T12:15:19.100Z,11.73
2018-05-25T12:18:51.589Z,11.70
2018-05-25T12:22:24.076Z,11.30
2018-05-25T12:25:56.563Z,10.37
2018-05-25T12:29:29.046Z,11.30
2018-05-25T12:33:01.530Z,9.80
2018-05-25T12:36:34.016Z,8.53
2018-05-25T12:40:06.485Z,8.67
2018-05-25T12:43:38.964Z,10.77
2018-05-25T12:47:12.206Z,8.40
2018-05-25T12:50:44.687Z,8.53
2018-05-25T12:54:17.152Z,7.97
2018-05-25T12:57:49.637Z,6.90
2018-05-25T13:01:22.128Z,6.10
2018-05-25T13:04:54.592Z,7.17
2018-05-25T13:08:27.072Z,6.40
2018-05-25T13:11:59.552Z,6.57
2018-05-25T13:15:32.029Z,6.20
2018-05-25T13:19:04.511Z,6.37
2018-05-25T13:22:36.989Z,5.60
2018-05-25T13:26:09.468Z,7.80
2018-05-25T13:29:41.948Z,6.50
2018-05-25T13:33:14.418Z,7.10
2018-05-25T13:36:46.900Z,6.80
2018-05-25T13:40:19.399Z,8.23
2018-05-25T13:43:51.872Z,7.73
2018-05-25T13:47:24.353Z,7.13
2018-05-25T13:50:56.834Z,5.90
2018-05-25T13:54:29.323Z,5.63
2018-05-25T13:58:02.567Z,6.07
2018-05-25T14:01:35.810Z,4.33
2018-05-25T14:05:08.292Z,4.43
2018-05-25T14:08:40.774Z,4.90
2018-05-25T14:12:13.258Z,5.03
2018-05-25T14:15:45.740Z,4.80
2018-05-25T14:19:18.220Z,5.00
2018-05-25T14:22:50.698Z,4.57
2018-05-25T14:26:23.181Z,5.50
2018-05-25T14:29:55.668Z,5.90
2018-05-25T14:33:28.140Z,7.17
2018-05-25T14:37:00.624Z,6.20
2018-05-25T14:40:33.105Z,6.57
2018-05-25T14:44:05.594Z,7.03
2018-05-25T14:47:38.065Z,6.23
2018-05-25T14:51:10.555Z,6.20
2018-05-25T14:54:43.047Z,5.57
2018-05-25T14:58:15.532Z,5.63
2018-05-25T15:01:48.009Z,4.70
2018-05-25T15:05:20.507Z,5.00
2018-05-25T15:08:52.991Z,5.77
2018-05-25T15:12:25.465Z,4.90
2018-05-25T15:15:57.948Z,5.20
2018-05-25T15:19:30.443Z,5.87
2018-05-25T15:23:03.716Z,5.10
2018-05-25T15:26:36.193Z,5.20
2018-05-25T15:30:08.673Z,5.80
2018-05-25T15:33:41.162Z,6.10
2018-05-25T15:37:13.632Z,6.20
2018-05-25T15:40:46.113Z,6.07
2018-05-25T15:44:18.596Z,5.20
2018-05-25T15:47:51.086Z,4.00
2018-05-25T15:51:23.555Z,3.70
2018-05-25T15:54:56.041Z,3.90
2018-05-25T15:58:28.534Z,3.40
2018-05-25T16:02:01.005Z,3.50
2018-05-25T16:05:33.493Z,3.57
2018-05-25T16:09:05.975Z,4.20
2018-05-25T16:12:38.458Z,3.57
2018-05-25T16:16:10.930Z,3.10
2018-05-25T16:19:43.418Z,6.23
2018-05-25T16:23:15.915Z,4.67
2018-05-25T16:26:48.403Z,3.77
2018-05-25T16:30:20.880Z,3.53
2018-05-25T16:33:53.353Z,2.77
2018-05-25T16:37:25.836Z,3.50
2018-05-25T16:40:58.317Z,4.00
2018-05-25T16:44:30.796Z,3.97
2018-05-25T16:48:03.278Z,3.80
2018-05-25T16:51:35.761Z,4.60
2018-05-25T16:55:08.243Z,3.53
2018-05-25T16:58:40.726Z,4.23
2018-05-25T17:02:13.205Z,3.73
2018-05-25T17:05:45.676Z,4.00
2018-05-25T17:09:18.160Z,3.80
2018-05-25T17:12:50.680Z,3.40
2018-05-25T17:16:23.126Z,4.20
2018-05-25T17:19:55.613Z,4.10
2018-05-25T17:23:28.093Z,4.37
2018-05-25T17:27:00.587Z,4.33
2018-05-25T17:30:33.077Z,4.43
2018-05-25T17:34:05.557Z,4.80
2018-05-25T17:37:38.044Z,5.80
2018-05-25T17:41:10.527Z,5.93
2018-05-25T17:44:43.010Z,5.90
2018-05-25T17:48:15.493Z,7.03
2018-05-25T17:51:48.124Z,7.63
2018-05-25T17:55:20.608Z,7.70
2018-05-25T17:58:53.088Z,6.83
2018-05-25T18:02:25.568Z,8.10
2018-05-25T18:05:58.052Z,7.00
2018-05-25T18:09:30.573Z,8.10
2018-05-25T18:13:03.070Z,8.23
2018-05-25T18:16:35.562Z,7.73
2018-05-25T18:20:08.057Z,8.63
2018-05-25T18:23:41.307Z,10.60
2018-05-25T18:27:13.815Z,11.90
2018-05-25T18:30:46.332Z,10.70
2018-05-25T18:34:19.575Z,11.00
2018-05-25T18:37:52.069Z,10.20
2018-05-25T18:41:24.565Z,11.43
2018-05-25T18:44:57.097Z,10.60
2018-05-25T18:48:30.329Z,11.90
2018-05-25T18:52:02.825Z,11.67
2018-05-25T18:55:35.312Z,10.80
2018-05-25T18:59:07.805Z,10.83
2018-05-25T19:02:40.302Z,12.40
2018-05-25T19:06:13.553Z,12.40
2018-05-25T19:09:46.037Z,12.57
2018-05-25T19:13:18.516Z,11.23
2018-05-25T19:16:50.996Z,9.87
2018-05-25T19:20:23.480Z,11.93
2018-05-25T19:23:55.984Z,11.97
2018-05-25T19:27:29.604Z,11.47
2018-05-25T19:31:02.140Z,12.90
2018-05-25T19:34:34.652Z,11.33
2018-05-25T19:38:07.154Z,11.40
2018-05-25T19:41:39.663Z,12.50
2018-05-25T19:45:12.932Z,11.80
2018-05-25T19:48:45.446Z,11.67
2018-05-25T19:52:17.932Z,11.43
2018-05-25T19:55:50.426Z,12.10
2018-05-25T19:59:22.921Z,13.30
2018-05-25T20:02:55.426Z,11.93
2018-05-25T20:06:27.924Z,12.37
2018-05-25T20:10:00.426Z,13.90
2018-05-25T20:13:33.699Z,12.23
2018-05-25T20:17:06.204Z,13.40
2018-05-25T20:20:39.491Z,13.43
2018-05-25T20:24:11.994Z,14.87
2018-05-25T20:27:45.248Z,13.73
2018-05-25T20:31:17.750Z,15.30
2018-05-25T20:34:50.260Z,15.37
2018-05-25T20:38:23.525Z,13.97
2018-05-25T20:41:56.007Z,14.43
2018-05-25T20:45:28.516Z,16.10
2018-05-25T20:49:01.813Z,14.07
2018-05-25T20:52:34.309Z,16.07
2018-05-25T20:56:07.568Z,15.60
2018-05-25T20:59:40.055Z,14.90
2018-05-25T21:03:12.569Z,14.50
2018-05-25T21:06:45.816Z,14.57
2018-05-25T21:10:18.314Z,14.97
2018-05-25T21:13:50.904Z,16.50
2018-05-25T21:17:23.400Z,13.30
2018-05-25T21:20:55.896Z,17.77
2018-05-25T21:24:29.160Z,15.47
2018-05-25T21:28:01.673Z,15.87
2018-05-25T21:31:34.145Z,17.00
2018-05-25T21:35:06.637Z,16.70
2018-05-25T21:38:39.137Z,15.80
2018-05-25T21:42:12.405Z,15.43
2018-05-25T21:45:44.892Z,17.30
2018-05-25T21:49:17.408Z,15.57
2018-05-25T21:52:49.918Z,18.20
2018-05-25T21:56:22.398Z,17.83
2018-05-25T21:59:54.881Z,18.83
2018-05-25T22:03:27.360Z,17.83
2018-05-25T22:06:59.909Z,18.67
2018-05-25T22:10:32.401Z,18.60
2018-05-25T22:14:04.928Z,18.73
2018-05-25T22:17:37.425Z,19.87
2018-05-25T22:21:09.896Z,18.70
2018-05-25T22:24:42.384Z,19.03
2018-05-25T22:28:14.876Z,18.57
2018-05-25T22:31:47.361Z,18.37
2018-05-25T22:35:19.843Z,19.20
2018-05-25T22:38:52.333Z,17.73
2018-05-25T22:42:36.668Z,16.77
2018-05-25T22:46:21.080Z,19.20
2018-05-25T22:50:05.459Z,17.53
2018-05-25T22:53:42.959Z,19.90
2018-05-25T22:57:15.485Z,19.87
2018-05-25T23:00:48.000Z,18.50
2018-05-25T23:04:21.264Z,17.27
2018-05-25T23:07:53.769Z,16.63
2018-05-25T23:11:27.039Z,18.33
2018-05-25T23:14:59.536Z,17.60
2018-05-25T23:18:32.043Z,18.97
2018-05-25T23:22:05.296Z,19.23
2018-05-25T23:25:37.768Z,21.43
2018-05-25T23:29:10.272Z,19.70
2018-05-25T23:32:42.791Z,20.43
2018-05-25T23:36:15.282Z,19.63
2018-05-25T23:39:47.766Z,20.57
2018-05-25T23:43:20.261Z,21.73
2018-05-25T23:46:52.777Z,20.00
2018-05-25T23:50:25.265Z,20.50
2018-05-25T23:53:57.757Z,20.17
2018-05-25T23:57:30.246Z,19.80
